• Join FlightAware (Why Join?)
  • Login
  • US Flag 
04:57PM EDT


 

Airport Tracker/Info


-or-


 

Live Flight TrackerFlight Track Log ✈ VH-OMM ✈ 09-May-2013 ✈ YTWB - YBBN / BNE

Flight Track Log - Related Links

Times and Time Zones

All times are in EDT time to prevent confusion due to time zone crossing. See the VH-OMM flight status page for this flight to view local times or setup timezone preferences in your user account.

Time Position Orientation Groundspeed Altitude Reporting Facility
EDT Latitude Longitude Course Direction KTS MPH feet Rate Location/Type
09:29PM -27.5502 151.9626 87° East 115 132 3,100  Level Aus ATC (RADAR)
09:30PM -27.5494 151.9795 87° East 125 144 3,400 840 Climbing Aus ATC (RADAR)
09:31PM -27.5458 152.0487 87° East 140 161 4,800 780 Climbing Aus ATC (RADAR)
09:32PM -27.5415 152.0666 75° East 139 160 5,000 900 Climbing Aus ATC (RADAR)
09:32PM -27.5303 152.0889 60° Northeast 138 159 5,700 780 Climbing Aus ATC (RADAR)
09:33PM -27.5151 152.1175 59° Northeast 141 162 6,100 600 Climbing Aus ATC (RADAR)
09:34PM -27.5054 152.1421 66° East 147 169 6,500 600 Climbing Aus ATC (RADAR)
09:34PM -27.4975 152.1781 76° East 143 165 7,000 300 Climbing Aus ATC (RADAR)
09:35PM -27.4944 152.1972 80° East 145 167 6,900 -60 Descending Aus ATC (RADAR)
09:36PM -27.4798 152.2538 74° East 129 148 6,900  Level Aus ATC (RADAR)
09:37PM -27.4777 152.2701 82° East 127 146 6,900 60 Level Aus ATC (RADAR)
09:37PM -27.4735 152.2927 78° East 125 144 7,000 60 Climbing Aus ATC (RADAR)
09:38PM -27.4582 152.3031 31° Northeast 119 137 7,000  Level Aus ATC (RADAR)
09:39PM -27.4626 152.2754 260° West 141 162 7,000  Level Aus ATC (RADAR)
09:39PM -27.4758 152.2399 247° West 145 167 7,000  Level Aus ATC (RADAR)
09:40PM -27.4814 152.2218 251° West 147 169 7,000  Level Aus ATC (RADAR)
09:41PM -27.4960 152.2302 153° Southeast 120 138 7,000  Level Aus ATC (RADAR)
09:41PM -27.4926 152.2397 68° East 124 143 7,000  Level Aus ATC (RADAR)
09:42PM -27.4882 152.2612 77° East 121 139 7,000  Level Aus ATC (RADAR)
09:43PM -27.4597 152.2678 12° North 141 162 7,000  Level Aus ATC (RADAR)
09:43PM -27.4356 152.2647 353° North 148 170 7,000  Level Aus ATC (RADAR)
09:44PM -27.4028 152.2616 355° North 156 180 7,000  Level Aus ATC (RADAR)
09:45PM -27.3949 152.2817 66° East 170 196 7,000  Level Aus ATC (RADAR)
09:46PM -27.4397 152.3069 153° Southeast 167 192 7,000  Level Aus ATC (RADAR)
09:46PM -27.4628 152.3128 167° South 167 192 7,000  Level Aus ATC (RADAR)
09:47PM -27.4817 152.3172 168° South 167 192 7,000 60 Level Aus ATC (RADAR)
09:47PM -27.5030 152.3310 150° Southeast 162 186 7,100  Climbing Aus ATC (RADAR)
09:48PM -27.4872 152.3708 66° East 156 180 7,000 -120 Descending Aus ATC (RADAR)
09:49PM -27.4786 152.3960 69° East 148 170 7,000  Level Aus ATC (RADAR)
09:49PM -27.4669 152.4294 68° East 149 171 7,000  Level Aus ATC (RADAR)
09:50PM -27.4601 152.4475 67° East 148 170 7,000  Level Aus ATC (RADAR)
09:51PM -27.4480 152.4971 75° East 152 175 7,000 -120 Level Aus ATC (RADAR)
09:51PM -27.4434 152.5166 75° East 152 175 6,900 -480 Descending Aus ATC (RADAR)
09:52PM -27.4389 152.5373 76° East 158 182 6,600 -600 Descending Aus ATC (RADAR)
09:52PM -27.4314 152.5672 74° East 166 191 6,300 -540 Descending Aus ATC (RADAR)
09:53PM -27.4246 152.6122 80° East 170 196 5,900 -360 Descending Aus ATC (RADAR)
09:54PM -27.4220 152.6427 85° East 166 191 5,800 -420 Descending Aus ATC (RADAR)
09:54PM -27.4170 152.6820 82° East 166 191 5,400 -660 Descending Aus ATC (RADAR)
09:55PM -27.4139 152.7086 83° East 168 193 5,000 -780 Descending Aus ATC (RADAR)
09:56PM -27.4087 152.7594 83° East 176 203 4,300 -720 Descending Aus ATC (RADAR)
09:56PM -27.4064 152.7829 84° East 177 204 4,100 -480 Descending Aus ATC (RADAR)
09:57PM -27.4041 152.8053 83° East 172 198 3,900 -120 Descending Aus ATC (RADAR)
09:57PM -27.4013 152.8356 84° East 166 191 4,000 -480 Climbing Aus ATC (RADAR)
09:58PM -27.3982 152.8742 85° East 166 191 3,300 -1,380 Descending Aus ATC (RADAR)
09:59PM -27.3917 152.9084 78° East 182 209 2,200 -720 Descending Aus ATC (RADAR)
09:59PM -27.3661 152.9415 49° Northeast 181 208 2,400 60 Climbing Aus ATC (RADAR)
10:00PM -27.3517 152.9621 52° Northeast 170 196 2,300 -660 Descending Aus ATC (RADAR)
10:00PM -27.3338 152.9872 51° Northeast 174 200 1,700 -480 Descending Aus ATC (RADAR)
10:01PM -27.3021 153.0325 52° Northeast 165 190 1,500 -240 Descending Aus ATC (RADAR)
10:02PM -27.2930 153.0470 54° Northeast 142 163 1,400 -540 Descending Aus ATC (RADAR)
10:02PM -27.2950 153.0718 95° East 138 159 1,000 -600 Descending Aus ATC (RADAR)
10:03PM -27.3163 153.0932 138° Southeast 121 139 600 -480 Descending Aus ATC (RADAR)
10:04PM -27.3312 153.1055 144° Southeast 112 129 400 -300 Descending Aus ATC (RADAR)
10:05PM -27.3485 153.1188 146° Southeast 98 113 200 -300 Descending Aus ATC (RADAR)